sensor_id;sensor_type;location;lat;lon;timestamp;noise_LAeq;noise_LA_min;noise_LA_max;noise_LA01;noise_LA95
72160;Laerm;60045;51.792;10.938;2023-09-19T00:02:01;31.32;29.79;33.58;;
72160;Laerm;60045;51.792;10.938;2023-09-19T00:04:32;35.95;31.27;45.70;;
72160;Laerm;60045;51.792;10.938;2023-09-19T00:06:58;38.97;34.02;46.48;;
72160;Laerm;60045;51.792;10.938;2023-09-19T00:09:24;34.13;32.53;37.40;;
72160;Laerm;60045;51.792;10.938;2023-09-19T00:11:53;36.58;31.36;46.35;;
72160;Laerm;60045;51.792;10.938;2023-09-19T00:14:19;54.54;31.91;72.66;;
72160;Laerm;60045;51.792;10.938;2023-09-19T00:16:44;51.65;31.42;69.63;;
72160;Laerm;60045;51.792;10.938;2023-09-19T00:19:11;33.32;30.63;39.34;;
72160;Laerm;60045;51.792;10.938;2023-09-19T00:21:37;32.46;30.41;37.06;;
72160;Laerm;60045;51.792;10.938;2023-09-19T00:24:04;31.19;29.16;38.35;;
72160;Laerm;60045;51.792;10.938;2023-09-19T00:26:33;33.96;30.10;43.41;;
72160;Laerm;60045;51.792;10.938;2023-09-19T00:28:59;62.15;27.94;80.05;;
72160;Laerm;60045;51.792;10.938;2023-09-19T00:31:33;32.53;27.91;43.58;;
72160;Laerm;60045;51.792;10.938;2023-09-19T00:33:59;28.83;27.46;35.75;;
72160;Laerm;60045;51.792;10.938;2023-09-19T00:36:31;28.47;27.24;42.93;;
72160;Laerm;60045;51.792;10.938;2023-09-19T00:38:58;28.40;27.42;35.63;;
72160;Laerm;60045;51.792;10.938;2023-09-19T00:41:24;28.46;27.32;41.08;;
72160;Laerm;60045;51.792;10.938;2023-09-19T00:43:50;28.44;27.54;40.15;;
72160;Laerm;60045;51.792;10.938;2023-09-19T00:46:16;31.03;27.65;41.37;;
72160;Laerm;60045;51.792;10.938;2023-09-19T00:48:42;28.72;27.68;33.12;;
72160;Laerm;60045;51.792;10.938;2023-09-19T00:51:08;50.52;27.77;68.47;;
72160;Laerm;60045;51.792;10.938;2023-09-19T00:53:34;53.60;27.89;71.12;;
72160;Laerm;60045;51.792;10.938;2023-09-19T00:56:00;28.54;27.66;36.73;;
72160;Laerm;60045;51.792;10.938;2023-09-19T00:58:27;30.87;28.06;42.97;;
72160;Laerm;60045;51.792;10.938;2023-09-19T01:00:58;29.52;27.70;41.55;;
72160;Laerm;60045;51.792;10.938;2023-09-19T01:03:24;31.65;28.22;40.87;;
72160;Laerm;60045;51.792;10.938;2023-09-19T01:05:50;30.31;28.04;42.61;;
72160;Laerm;60045;51.792;10.938;2023-09-19T01:08:16;31.59;28.18;39.17;;
72160;Laerm;60045;51.792;10.938;2023-09-19T01:10:51;35.63;30.12;46.31;;
72160;Laerm;60045;51.792;10.938;2023-09-19T01:21:22;30.47;28.12;36.49;;
72160;Laerm;60045;51.792;10.938;2023-09-19T01:31:38;62.07;30.68;81.88;;
72160;Laerm;60045;51.792;10.938;2023-09-19T01:34:05;38.04;31.09;46.86;;
72160;Laerm;60045;51.792;10.938;2023-09-19T01:36:33;34.28;30.76;42.44;;
72160;Laerm;60045;51.792;10.938;2023-09-19T01:39:01;33.01;30.61;36.55;;
72160;Laerm;60045;51.792;10.938;2023-09-19T01:44:27;34.86;31.21;39.94;;
72160;Laerm;60045;51.792;10.938;2023-09-19T01:46:55;33.51;31.42;40.05;;
72160;Laerm;60045;51.792;10.938;2023-09-19T01:54:21;37.20;33.65;44.83;;
72160;Laerm;60045;51.792;10.938;2023-09-19T01:56:54;56.90;36.22;76.38;;
72160;Laerm;60045;51.792;10.938;2023-09-19T01:59:30;50.01;34.58;72.87;;
72160;Laerm;60045;51.792;10.938;2023-09-19T02:01:59;40.52;35.29;49.97;;
72160;Laerm;60045;51.792;10.938;2023-09-19T02:04:26;37.28;34.61;44.93;;
72160;Laerm;60045;51.792;10.938;2023-09-19T02:06:52;47.11;34.28;61.78;;
72160;Laerm;60045;51.792;10.938;2023-09-19T02:09:18;37.63;33.63;42.21;;
72160;Laerm;60045;51.792;10.938;2023-09-19T02:11:44;40.02;33.51;45.11;;
72160;Laerm;60045;51.792;10.938;2023-09-19T02:14:10;63.13;37.05;79.84;;
72160;Laerm;60045;51.792;10.938;2023-09-19T02:16:35;61.36;34.27;77.96;;
72160;Laerm;60045;51.792;10.938;2023-09-19T02:19:02;34.21;31.36;45.14;;
72160;Laerm;60045;51.792;10.938;2023-09-19T02:21:31;37.64;32.56;49.05;;
72160;Laerm;60045;51.792;10.938;2023-09-19T02:23:57;66.98;32.06;81.76;;
72160;Laerm;60045;51.792;10.938;2023-09-19T02:26:23;39.33;32.59;49.69;;
72160;Laerm;60045;51.792;10.938;2023-09-19T02:28:49;35.44;32.27;39.04;;
72160;Laerm;60045;51.792;10.938;2023-09-19T02:31:15;62.05;31.66;79.68;;
72160;Laerm;60045;51.792;10.938;2023-09-19T02:33:41;38.35;32.02;47.53;;
72160;Laerm;60045;51.792;10.938;2023-09-19T02:36:08;51.80;32.93;68.13;;
72160;Laerm;60045;51.792;10.938;2023-09-19T02:38:34;59.43;34.12;77.53;;
72160;Laerm;60045;51.792;10.938;2023-09-19T02:41:00;53.66;34.68;69.53;;
72160;Laerm;60045;51.792;10.938;2023-09-19T02:43:26;54.21;35.23;72.71;;
72160;Laerm;60045;51.792;10.938;2023-09-19T02:45:52;64.15;37.91;84.33;;
72160;Laerm;60045;51.792;10.938;2023-09-19T02:48:18;55.50;35.44;71.30;;
72160;Laerm;60045;51.792;10.938;2023-09-19T02:50:44;57.19;34.39;73.52;;
72160;Laerm;60045;51.792;10.938;2023-09-19T02:53:10;49.93;33.73;65.54;;
72160;Laerm;60045;51.792;10.938;2023-09-19T02:55:38;54.90;32.35;70.91;;
72160;Laerm;60045;51.792;10.938;2023-09-19T02:58:05;52.90;32.30;66.17;;
72160;Laerm;60045;51.792;10.938;2023-09-19T03:00:32;38.17;32.29;45.92;;
72160;Laerm;60045;51.792;10.938;2023-09-19T03:02:59;43.32;31.27;55.10;;
72160;Laerm;60045;51.792;10.938;2023-09-19T03:05:25;61.41;32.22;78.09;;
72160;Laerm;60045;51.792;10.938;2023-09-19T03:07:51;56.17;32.96;69.38;;
72160;Laerm;60045;51.792;10.938;2023-09-19T03:10:18;55.35;33.54;70.59;;
72160;Laerm;60045;51.792;10.938;2023-09-19T03:12:44;59.29;33.87;71.85;;
72160;Laerm;60045;51.792;10.938;2023-09-19T03:15:09;56.86;31.90;69.78;;
72160;Laerm;60045;51.792;10.938;2023-09-19T03:17:35;34.57;30.89;43.32;;
72160;Laerm;60045;51.792;10.938;2023-09-19T03:20:02;60.93;33.25;78.17;;
72160;Laerm;60045;51.792;10.938;2023-09-19T03:22:33;56.82;32.46;73.27;;
72160;Laerm;60045;51.792;10.938;2023-09-19T03:24:59;56.88;31.53;71.21;;
72160;Laerm;60045;51.792;10.938;2023-09-19T03:27:25;31.12;29.03;37.26;;
72160;Laerm;60045;51.792;10.938;2023-09-19T03:29:52;54.73;29.16;70.57;;
72160;Laerm;60045;51.792;10.938;2023-09-19T03:32:18;53.70;32.91;68.10;;
72160;Laerm;60045;51.792;10.938;2023-09-19T03:34:44;60.36;33.74;74.69;;
72160;Laerm;60045;51.792;10.938;2023-09-19T03:37:13;55.53;31.92;72.66;;
72160;Laerm;60045;51.792;10.938;2023-09-19T03:39:39;62.84;34.88;79.44;;
72160;Laerm;60045;51.792;10.938;2023-09-19T03:42:05;59.44;36.11;71.34;;
72160;Laerm;60045;51.792;10.938;2023-09-19T03:44:32;59.79;35.56;74.69;;
72160;Laerm;60045;51.792;10.938;2023-09-19T03:46:58;64.07;34.59;79.82;;
72160;Laerm;60045;51.792;10.938;2023-09-19T03:49:24;57.08;32.68;68.91;;
72160;Laerm;60045;51.792;10.938;2023-09-19T03:51:50;57.59;30.86;69.76;;
72160;Laerm;60045;51.792;10.938;2023-09-19T03:54:15;60.04;35.05;74.39;;
72160;Laerm;60045;51.792;10.938;2023-09-19T03:56:44;61.52;31.63;77.04;;
72160;Laerm;60045;51.792;10.938;2023-09-19T03:59:10;58.20;35.08;71.25;;
72160;Laerm;60045;51.792;10.938;2023-09-19T04:01:37;62.45;35.03;77.75;;
72160;Laerm;60045;51.792;10.938;2023-09-19T04:04:03;56.68;37.11;69.17;;
72160;Laerm;60045;51.792;10.938;2023-09-19T04:06:35;62.09;37.41;78.15;;
72160;Laerm;60045;51.792;10.938;2023-09-19T04:09:01;56.00;34.10;68.89;;
72160;Laerm;60045;51.792;10.938;2023-09-19T04:11:28;59.75;34.75;72.52;;
72160;Laerm;60045;51.792;10.938;2023-09-19T04:13:54;67.08;36.37;82.37;;
72160;Laerm;60045;51.792;10.938;2023-09-19T04:16:20;59.73;34.74;74.11;;
72160;Laerm;60045;51.792;10.938;2023-09-19T04:18:46;59.07;32.87;72.09;;
72160;Laerm;60045;51.792;10.938;2023-09-19T04:21:11;60.85;33.88;73.73;;
72160;Laerm;60045;51.792;10.938;2023-09-19T04:23:37;62.20;33.39;77.48;;
72160;Laerm;60045;51.792;10.938;2023-09-19T04:26:03;61.00;39.61;72.32;;
72160;Laerm;60045;51.792;10.938;2023-09-19T04:28:30;68.45;40.26;83.27;;
72160;Laerm;60045;51.792;10.938;2023-09-19T04:30:57;60.88;36.45;72.99;;
72160;Laerm;60045;51.792;10.938;2023-09-19T04:33:24;66.90;36.37;85.16;;
72160;Laerm;60045;51.792;10.938;2023-09-19T04:35:50;65.23;33.55;78.53;;
72160;Laerm;60045;51.792;10.938;2023-09-19T04:38:17;63.25;33.66;77.87;;
72160;Laerm;60045;51.792;10.938;2023-09-19T04:40:42;62.88;35.25;75.84;;
72160;Laerm;60045;51.792;10.938;2023-09-19T04:43:08;66.43;38.38;80.04;;
72160;Laerm;60045;51.792;10.938;2023-09-19T04:45:34;64.42;33.54;83.34;;
72160;Laerm;60045;51.792;10.938;2023-09-19T04:48:00;64.65;33.95;76.03;;
72160;Laerm;60045;51.792;10.938;2023-09-19T04:50:25;61.24;34.03;72.35;;
72160;Laerm;60045;51.792;10.938;2023-09-19T04:52:52;63.51;36.75;78.11;;
72160;Laerm;60045;51.792;10.938;2023-09-19T04:55:19;61.30;35.41;72.54;;
72160;Laerm;60045;51.792;10.938;2023-09-19T04:57:49;59.38;35.64;71.84;;
72160;Laerm;60045;51.792;10.938;2023-09-19T05:00:15;64.36;38.15;77.54;;
72160;Laerm;60045;51.792;10.938;2023-09-19T05:02:42;59.42;34.07;72.33;;
72160;Laerm;60045;51.792;10.938;2023-09-19T05:05:08;64.27;36.20;80.91;;
72160;Laerm;60045;51.792;10.938;2023-09-19T05:07:39;64.14;36.07;77.64;;
72160;Laerm;60045;51.792;10.938;2023-09-19T05:10:05;64.20;35.10;80.70;;
72160;Laerm;60045;51.792;10.938;2023-09-19T05:12:32;63.83;36.12;79.71;;
72160;Laerm;60045;51.792;10.938;2023-09-19T05:14:59;65.82;40.70;81.47;;
72160;Laerm;60045;51.792;10.938;2023-09-19T05:17:26;59.85;36.53;75.04;;
72160;Laerm;60045;51.792;10.938;2023-09-19T05:19:52;60.35;38.05;72.63;;
72160;Laerm;60045;51.792;10.938;2023-09-19T05:22:18;69.80;37.04;90.60;;
72160;Laerm;60045;51.792;10.938;2023-09-19T05:24:43;61.56;38.75;73.67;;
72160;Laerm;60045;51.792;10.938;2023-09-19T05:27:13;59.27;39.03;73.81;;
72160;Laerm;60045;51.792;10.938;2023-09-19T05:29:39;65.28;39.45;78.92;;
72160;Laerm;60045;51.792;10.938;2023-09-19T05:32:05;65.22;37.24;82.47;;
72160;Laerm;60045;51.792;10.938;2023-09-19T05:34:31;67.51;37.82;81.39;;
72160;Laerm;60045;51.792;10.938;2023-09-19T05:36:56;62.13;42.26;72.93;;
72160;Laerm;60045;51.792;10.938;2023-09-19T05:39:22;67.12;36.60;79.89;;
72160;Laerm;60045;51.792;10.938;2023-09-19T05:41:48;60.92;35.35;78.62;;
72160;Laerm;60045;51.792;10.938;2023-09-19T05:44:14;64.98;39.23;79.16;;
72160;Laerm;60045;51.792;10.938;2023-09-19T05:46:39;58.32;35.53;70.63;;
72160;Laerm;60045;51.792;10.938;2023-09-19T05:49:05;59.74;36.57;73.38;;
72160;Laerm;60045;51.792;10.938;2023-09-19T05:51:31;54.68;35.14;72.76;;
72160;Laerm;60045;51.792;10.938;2023-09-19T05:53:57;64.38;36.10;77.57;;
72160;Laerm;60045;51.792;10.938;2023-09-19T05:56:23;58.54;34.99;74.54;;
72160;Laerm;60045;51.792;10.938;2023-09-19T05:58:49;65.14;36.17;80.59;;
72160;Laerm;60045;51.792;10.938;2023-09-19T06:01:18;67.13;37.59;80.06;;
72160;Laerm;60045;51.792;10.938;2023-09-19T06:03:44;57.76;35.09;72.54;;
72160;Laerm;60045;51.792;10.938;2023-09-19T06:06:10;58.72;35.46;72.10;;
72160;Laerm;60045;51.792;10.938;2023-09-19T06:08:35;65.53;37.21;83.75;;
72160;Laerm;60045;51.792;10.938;2023-09-19T06:11:01;56.23;31.81;74.07;;
72160;Laerm;60045;51.792;10.938;2023-09-19T06:13:30;59.20;34.91;71.63;;
72160;Laerm;60045;51.792;10.938;2023-09-19T06:15:58;66.71;42.45;79.75;;
72160;Laerm;60045;51.792;10.938;2023-09-19T06:18:28;64.45;36.38;78.27;;
72160;Laerm;60045;51.792;10.938;2023-09-19T06:20:54;61.59;35.85;78.31;;
72160;Laerm;60045;51.792;10.938;2023-09-19T06:23:20;58.58;35.23;70.61;;
72160;Laerm;60045;51.792;10.938;2023-09-19T06:25:46;59.71;34.60;72.34;;
72160;Laerm;60045;51.792;10.938;2023-09-19T06:28:12;67.19;34.43;80.68;;
72160;Laerm;60045;51.792;10.938;2023-09-19T06:30:38;65.91;39.77;79.58;;
72160;Laerm;60045;51.792;10.938;2023-09-19T06:33:07;50.99;30.30;70.12;;
72160;Laerm;60045;51.792;10.938;2023-09-19T06:35:34;59.59;32.92;74.89;;
72160;Laerm;60045;51.792;10.938;2023-09-19T06:38:02;59.35;33.98;69.54;;
72160;Laerm;60045;51.792;10.938;2023-09-19T06:40:29;59.63;34.56;72.03;;
72160;Laerm;60045;51.792;10.938;2023-09-19T06:42:56;62.64;34.07;75.99;;
72160;Laerm;60045;51.792;10.938;2023-09-19T06:45:22;61.53;35.36;76.85;;
72160;Laerm;60045;51.792;10.938;2023-09-19T06:47:49;63.19;33.52;76.02;;
72160;Laerm;60045;51.792;10.938;2023-09-19T06:50:15;61.05;34.75;74.20;;
72160;Laerm;60045;51.792;10.938;2023-09-19T06:52:44;62.00;35.91;76.40;;
72160;Laerm;60045;51.792;10.938;2023-09-19T06:55:11;59.05;33.43;75.02;;
72160;Laerm;60045;51.792;10.938;2023-09-19T06:57:38;62.95;34.59;79.44;;
72160;Laerm;60045;51.792;10.938;2023-09-19T07:00:06;61.85;31.77;77.46;;
72160;Laerm;60045;51.792;10.938;2023-09-19T07:02:40;58.39;33.22;72.02;;
72160;Laerm;60045;51.792;10.938;2023-09-19T07:05:06;68.82;33.03;81.02;;
72160;Laerm;60045;51.792;10.938;2023-09-19T07:07:32;59.65;32.76;71.63;;
72160;Laerm;60045;51.792;10.938;2023-09-19T07:10:00;66.02;31.50;81.47;;
72160;Laerm;60045;51.792;10.938;2023-09-19T07:12:26;54.75;36.22;70.07;;
72160;Laerm;60045;51.792;10.938;2023-09-19T07:14:51;62.78;32.97;72.88;;
72160;Laerm;60045;51.792;10.938;2023-09-19T07:17:17;55.87;33.29;70.69;;
72160;Laerm;60045;51.792;10.938;2023-09-19T07:19:44;57.61;32.33;69.73;;
72160;Laerm;60045;51.792;10.938;2023-09-19T07:22:10;66.35;36.54;81.61;;
72160;Laerm;60045;51.792;10.938;2023-09-19T07:24:36;64.26;39.24;82.85;;
72160;Laerm;60045;51.792;10.938;2023-09-19T07:27:02;59.44;35.87;70.60;;
72160;Laerm;60045;51.792;10.938;2023-09-19T07:29:28;64.46;33.51;79.37;;
72160;Laerm;60045;51.792;10.938;2023-09-19T07:31:53;63.67;33.64;81.19;;
72160;Laerm;60045;51.792;10.938;2023-09-19T07:34:19;58.79;34.65;71.68;;
72160;Laerm;60045;51.792;10.938;2023-09-19T07:36:48;59.18;32.22;71.26;;
72160;Laerm;60045;51.792;10.938;2023-09-19T07:39:13;61.77;36.56;78.26;;
72160;Laerm;60045;51.792;10.938;2023-09-19T07:41:39;59.83;32.62;72.54;;
72160;Laerm;60045;51.792;10.938;2023-09-19T07:44:05;58.62;33.43;75.88;;
72160;Laerm;60045;51.792;10.938;2023-09-19T07:46:31;57.04;32.44;70.82;;
72160;Laerm;60045;51.792;10.938;2023-09-19T07:48:57;61.34;35.41;71.33;;
72160;Laerm;60045;51.792;10.938;2023-09-19T07:51:23;61.41;36.94;75.12;;
72160;Laerm;60045;51.792;10.938;2023-09-19T07:53:49;60.69;31.46;72.11;;
72160;Laerm;60045;51.792;10.938;2023-09-19T07:56:14;64.02;35.49;80.25;;
72160;Laerm;60045;51.792;10.938;2023-09-19T07:58:40;63.29;35.53;77.98;;
72160;Laerm;60045;51.792;10.938;2023-09-19T08:01:09;61.07;38.70;73.08;;
72160;Laerm;60045;51.792;10.938;2023-09-19T08:03:35;60.97;36.31;76.98;;
72160;Laerm;60045;51.792;10.938;2023-09-19T08:06:09;61.14;36.56;71.42;;
72160;Laerm;60045;51.792;10.938;2023-09-19T08:08:35;58.88;36.15;73.14;;
72160;Laerm;60045;51.792;10.938;2023-09-19T08:11:02;54.50;34.79;70.92;;
72160;Laerm;60045;51.792;10.938;2023-09-19T08:13:29;63.35;38.37;78.65;;
72160;Laerm;60045;51.792;10.938;2023-09-19T08:15:56;51.24;35.47;68.98;;
72160;Laerm;60045;51.792;10.938;2023-09-19T08:18:21;64.60;37.64;80.52;;
72160;Laerm;60045;51.792;10.938;2023-09-19T08:20:51;63.27;41.25;81.50;;
72160;Laerm;60045;51.792;10.938;2023-09-19T08:23:17;62.40;35.49;78.69;;
72160;Laerm;60045;51.792;10.938;2023-09-19T08:25:45;62.14;39.67;73.74;;
72160;Laerm;60045;51.792;10.938;2023-09-19T08:28:11;68.70;42.98;80.36;;
72160;Laerm;60045;51.792;10.938;2023-09-19T08:30:45;60.20;39.16;74.01;;
72160;Laerm;60045;51.792;10.938;2023-09-19T08:33:10;63.15;38.25;78.15;;
72160;Laerm;60045;51.792;10.938;2023-09-19T08:35:36;62.06;36.49;76.99;;
72160;Laerm;60045;51.792;10.938;2023-09-19T08:38:04;58.81;37.94;79.30;;
72160;Laerm;60045;51.792;10.938;2023-09-19T08:40:31;64.42;38.03;81.58;;
72160;Laerm;60045;51.792;10.938;2023-09-19T08:42:58;60.15;37.65;72.26;;
72160;Laerm;60045;51.792;10.938;2023-09-19T08:45:24;63.13;38.28;79.11;;
72160;Laerm;60045;51.792;10.938;2023-09-19T08:50:28;58.76;35.19;75.28;;
72160;Laerm;60045;51.792;10.938;2023-09-19T08:52:55;64.78;41.03;81.23;;
72160;Laerm;60045;51.792;10.938;2023-09-19T08:55:26;59.32;41.41;72.94;;
72160;Laerm;60045;51.792;10.938;2023-09-19T08:57:55;64.79;41.03;83.29;;
72160;Laerm;60045;51.792;10.938;2023-09-19T09:00:24;65.80;45.14;81.62;;
72160;Laerm;60045;51.792;10.938;2023-09-19T09:02:51;64.63;43.30;79.25;;
72160;Laerm;60045;51.792;10.938;2023-09-19T09:05:19;67.86;42.17;83.41;;
72160;Laerm;60045;51.792;10.938;2023-09-19T09:07:48;62.49;40.61;76.60;;
72160;Laerm;60045;51.792;10.938;2023-09-19T09:10:16;60.24;41.08;72.21;;
72160;Laerm;60045;51.792;10.938;2023-09-19T09:12:42;56.65;42.18;71.16;;
72160;Laerm;60045;51.792;10.938;2023-09-19T09:15:08;66.17;43.41;79.79;;
72160;Laerm;60045;51.792;10.938;2023-09-19T09:17:36;60.72;41.26;71.20;;
72160;Laerm;60045;51.792;10.938;2023-09-19T09:20:02;56.18;40.30;71.71;;
72160;Laerm;60045;51.792;10.938;2023-09-19T09:22:35;62.87;38.78;75.87;;
72160;Laerm;60045;51.792;10.938;2023-09-19T09:25:01;60.51;41.48;71.56;;
72160;Laerm;60045;51.792;10.938;2023-09-19T09:27:29;60.87;37.19;74.79;;
72160;Laerm;60045;51.792;10.938;2023-09-19T09:29:55;61.33;42.69;73.41;;
72160;Laerm;60045;51.792;10.938;2023-09-19T09:34:56;65.36;40.97;78.73;;
72160;Laerm;60045;51.792;10.938;2023-09-19T09:37:23;63.01;39.80;73.96;;
72160;Laerm;60045;51.792;10.938;2023-09-19T09:39:56;58.45;34.82;71.40;;
72160;Laerm;60045;51.792;10.938;2023-09-19T09:42:35;66.09;40.20;82.28;;
72160;Laerm;60045;51.792;10.938;2023-09-19T09:47:43;59.83;40.01;72.03;;
72160;Laerm;60045;51.792;10.938;2023-09-19T09:50:23;61.87;38.74;71.16;;
72160;Laerm;60045;51.792;10.938;2023-09-19T09:52:54;58.32;37.77;68.51;;
72160;Laerm;60045;51.792;10.938;2023-09-19T09:55:26;55.60;35.71;69.37;;
72160;Laerm;60045;51.792;10.938;2023-09-19T10:00:39;63.83;39.66;76.29;;
72160;Laerm;60045;51.792;10.938;2023-09-19T10:03:20;66.49;35.53;81.83;;
72160;Laerm;60045;51.792;10.938;2023-09-19T10:05:52;64.70;35.35;79.44;;
72160;Laerm;60045;51.792;10.938;2023-09-19T10:08:20;60.84;35.09;76.08;;
72160;Laerm;60045;51.792;10.938;2023-09-19T10:10:46;62.11;33.36;78.07;;
72160;Laerm;60045;51.792;10.938;2023-09-19T10:13:18;59.64;35.44;71.22;;
72160;Laerm;60045;51.792;10.938;2023-09-19T10:15:47;63.02;35.76;80.92;;
72160;Laerm;60045;51.792;10.938;2023-09-19T10:18:19;64.05;37.11;81.23;;
72160;Laerm;60045;51.792;10.938;2023-09-19T10:20:46;64.72;37.31;78.29;;
72160;Laerm;60045;51.792;10.938;2023-09-19T10:23:13;63.99;40.53;79.84;;
72160;Laerm;60045;51.792;10.938;2023-09-19T10:25:40;66.52;42.38;78.25;;
72160;Laerm;60045;51.792;10.938;2023-09-19T10:28:07;63.82;38.72;79.12;;
72160;Laerm;60045;51.792;10.938;2023-09-19T10:30:36;58.55;37.75;73.69;;
72160;Laerm;60045;51.792;10.938;2023-09-19T10:33:07;66.05;40.71;84.95;;
72160;Laerm;60045;51.792;10.938;2023-09-19T10:35:33;59.86;38.63;76.97;;
72160;Laerm;60045;51.792;10.938;2023-09-19T10:38:02;65.93;40.40;80.35;;
72160;Laerm;60045;51.792;10.938;2023-09-19T10:40:29;63.16;41.79;75.91;;
72160;Laerm;60045;51.792;10.938;2023-09-19T10:43:02;60.13;39.32;74.35;;
72160;Laerm;60045;51.792;10.938;2023-09-19T10:45:34;53.31;37.52;73.39;;
72160;Laerm;60045;51.792;10.938;2023-09-19T10:48:01;62.83;36.89;77.46;;
72160;Laerm;60045;51.792;10.938;2023-09-19T10:50:33;63.40;37.27;77.57;;
72160;Laerm;60045;51.792;10.938;2023-09-19T10:53:02;62.78;41.43;79.88;;
72160;Laerm;60045;51.792;10.938;2023-09-19T10:55:30;62.88;40.66;73.77;;
72160;Laerm;60045;51.792;10.938;2023-09-19T10:57:57;60.15;39.68;72.97;;
72160;Laerm;60045;51.792;10.938;2023-09-19T11:00:57;63.14;39.23;75.16;;
72160;Laerm;60045;51.792;10.938;2023-09-19T11:03:27;66.53;44.35;81.00;;
72160;Laerm;60045;51.792;10.938;2023-09-19T11:06:04;63.24;40.77;78.61;;
72160;Laerm;60045;51.792;10.938;2023-09-19T11:14:14;59.14;40.61;74.74;;
72160;Laerm;60045;51.792;10.938;2023-09-19T11:16:40;62.24;34.69;76.67;;
72160;Laerm;60045;51.792;10.938;2023-09-19T11:19:05;59.61;36.53;72.09;;
72160;Laerm;60045;51.792;10.938;2023-09-19T11:26:40;62.54;39.97;73.90;;
72160;Laerm;60045;51.792;10.938;2023-09-19T11:31:54;58.59;42.83;73.03;;
72160;Laerm;60045;51.792;10.938;2023-09-19T11:34:42;66.12;42.50;80.23;;
72160;Laerm;60045;51.792;10.938;2023-09-19T11:39:39;54.77;36.43;68.99;;
72160;Laerm;60045;51.792;10.938;2023-09-19T11:44:52;59.62;41.10;73.82;;
72160;Laerm;60045;51.792;10.938;2023-09-19T11:47:21;62.59;39.41;74.75;;
72160;Laerm;60045;51.792;10.938;2023-09-19T11:49:49;62.97;39.54;75.07;;
72160;Laerm;60045;51.792;10.938;2023-09-19T11:52:21;59.92;40.60;70.48;;
72160;Laerm;60045;51.792;10.938;2023-09-19T11:54:54;60.58;38.20;73.72;;
72160;Laerm;60045;51.792;10.938;2023-09-19T11:57:22;57.35;36.97;70.54;;
72160;Laerm;60045;51.792;10.938;2023-09-19T11:59:48;64.51;36.82;82.34;;
72160;Laerm;60045;51.792;10.938;2023-09-19T12:02:18;64.04;37.47;78.63;;
72160;Laerm;60045;51.792;10.938;2023-09-19T12:04:53;61.33;39.40;74.02;;
72160;Laerm;60045;51.792;10.938;2023-09-19T12:07:20;57.99;36.07;70.17;;
72160;Laerm;60045;51.792;10.938;2023-09-19T12:09:50;60.46;39.38;75.02;;
72160;Laerm;60045;51.792;10.938;2023-09-19T12:12:34;59.23;39.12;70.33;;
72160;Laerm;60045;51.792;10.938;2023-09-19T12:15:00;61.64;37.41;76.77;;
72160;Laerm;60045;51.792;10.938;2023-09-19T12:17:37;56.97;37.43;71.66;;
72160;Laerm;60045;51.792;10.938;2023-09-19T12:20:04;59.55;36.63;72.17;;
72160;Laerm;60045;51.792;10.938;2023-09-19T12:22:43;61.20;40.57;70.63;;
72160;Laerm;60045;51.792;10.938;2023-09-19T12:25:10;59.80;37.19;71.23;;
72160;Laerm;60045;51.792;10.938;2023-09-19T12:27:49;64.47;40.36;78.24;;
72160;Laerm;60045;51.792;10.938;2023-09-19T12:30:18;59.50;38.13;72.15;;
72160;Laerm;60045;51.792;10.938;2023-09-19T12:32:45;60.03;38.75;72.34;;
72160;Laerm;60045;51.792;10.938;2023-09-19T12:35:26;63.53;40.06;79.78;;
72160;Laerm;60045;51.792;10.938;2023-09-19T12:37:53;60.83;35.32;74.20;;
72160;Laerm;60045;51.792;10.938;2023-09-19T12:40:20;65.01;41.78;77.38;;
72160;Laerm;60045;51.792;10.938;2023-09-19T12:42:52;63.31;40.76;77.90;;
72160;Laerm;60045;51.792;10.938;2023-09-19T12:45:23;66.49;40.66;81.64;;
72160;Laerm;60045;51.792;10.938;2023-09-19T12:50:33;64.85;37.22;83.31;;
72160;Laerm;60045;51.792;10.938;2023-09-19T12:52:59;62.41;41.42;72.83;;
72160;Laerm;60045;51.792;10.938;2023-09-19T12:55:28;52.24;40.80;68.56;;
72160;Laerm;60045;51.792;10.938;2023-09-19T12:57:58;66.07;41.50;78.17;;
72160;Laerm;60045;51.792;10.938;2023-09-19T13:00:43;57.41;36.81;69.87;;
72160;Laerm;60045;51.792;10.938;2023-09-19T13:08:35;63.14;40.57;78.06;;
72160;Laerm;60045;51.792;10.938;2023-09-19T13:11:13;61.91;42.36;74.24;;
72160;Laerm;60045;51.792;10.938;2023-09-19T13:13:45;61.46;39.70;74.59;;
72160;Laerm;60045;51.792;10.938;2023-09-19T13:16:14;62.65;41.54;72.76;;
72160;Laerm;60045;51.792;10.938;2023-09-19T13:18:53;60.56;41.95;72.47;;
72160;Laerm;60045;51.792;10.938;2023-09-19T13:21:28;60.29;37.47;74.13;;
72160;Laerm;60045;51.792;10.938;2023-09-19T13:23:55;59.81;40.42;72.98;;
72160;Laerm;60045;51.792;10.938;2023-09-19T13:26:26;64.91;42.26;76.28;;
72160;Laerm;60045;51.792;10.938;2023-09-19T13:28:53;62.16;38.49;72.72;;
72160;Laerm;60045;51.792;10.938;2023-09-19T13:31:19;62.58;39.66;73.13;;
72160;Laerm;60045;51.792;10.938;2023-09-19T13:33:45;63.24;39.08;79.14;;
72160;Laerm;60045;51.792;10.938;2023-09-19T13:36:11;62.34;41.57;73.02;;
72160;Laerm;60045;51.792;10.938;2023-09-19T13:38:38;63.91;39.15;78.22;;
72160;Laerm;60045;51.792;10.938;2023-09-19T13:41:05;58.52;39.13;72.72;;
72160;Laerm;60045;51.792;10.938;2023-09-19T13:43:31;62.46;40.73;74.22;;
72160;Laerm;60045;51.792;10.938;2023-09-19T13:45:57;64.88;43.52;81.30;;
72160;Laerm;60045;51.792;10.938;2023-09-19T13:48:23;63.20;37.37;77.93;;
72160;Laerm;60045;51.792;10.938;2023-09-19T13:50:49;62.99;37.12;76.66;;
72160;Laerm;60045;51.792;10.938;2023-09-19T13:53:15;52.28;37.57;67.99;;
72160;Laerm;60045;51.792;10.938;2023-09-19T13:55:42;65.62;41.88;79.18;;
72160;Laerm;60045;51.792;10.938;2023-09-19T13:58:07;63.47;42.52;76.44;;
72160;Laerm;60045;51.792;10.938;2023-09-19T14:00:36;60.50;38.56;72.85;;
72160;Laerm;60045;51.792;10.938;2023-09-19T14:03:03;61.30;38.98;73.25;;
72160;Laerm;60045;51.792;10.938;2023-09-19T14:05:29;60.77;38.28;73.07;;
72160;Laerm;60045;51.792;10.938;2023-09-19T14:07:56;60.59;38.51;72.64;;
72160;Laerm;60045;51.792;10.938;2023-09-19T14:10:23;61.74;38.86;73.80;;
72160;Laerm;60045;51.792;10.938;2023-09-19T14:12:50;63.78;40.55;76.15;;
72160;Laerm;60045;51.792;10.938;2023-09-19T14:15:16;61.55;39.42;74.28;;
72160;Laerm;60045;51.792;10.938;2023-09-19T14:17:41;62.99;42.47;74.77;;
72160;Laerm;60045;51.792;10.938;2023-09-19T14:20:07;61.31;38.72;74.16;;
72160;Laerm;60045;51.792;10.938;2023-09-19T14:22:35;62.91;38.26;73.64;;
72160;Laerm;60045;51.792;10.938;2023-09-19T14:25:02;61.28;42.10;72.62;;
72160;Laerm;60045;51.792;10.938;2023-09-19T14:27:28;61.98;40.88;74.59;;
72160;Laerm;60045;51.792;10.938;2023-09-19T14:29:53;63.15;39.07;76.99;;
72160;Laerm;60045;51.792;10.938;2023-09-19T14:32:20;65.07;39.65;83.60;;
72160;Laerm;60045;51.792;10.938;2023-09-19T14:34:46;60.16;41.25;71.51;;
72160;Laerm;60045;51.792;10.938;2023-09-19T14:37:12;62.43;41.54;74.19;;